Time;durP1;ratioP1;P1;durP2;ratioP2;P2;SDS_P1;SDS_P2;PMS_P1;PMS_P2;Temp;Humidity;BMP_temperature;BMP_pressure;BME280_temperature;BME280_humidity;BME280_pressure;Samples;Min_cycle;Max_cycle;Signal;HPM_P1;HPM_P2
2023/10/02 00:00:39;;;;;;;25.88;14.20;;;16.90;99.90;;;;;;6305719;22;20019;-47
2023/10/02 00:03:05;;;;;;;;;;;16.90;99.90;;;;;;6306232;22;20022;-47
2023/10/02 00:05:52;;;;;;;20.73;13.75;;;16.90;99.90;;;;;;6305186;22;19915;-46
2023/10/02 00:14:18;;;;;;;25.05;13.98;;;17.00;99.90;;;;;;6305426;22;20023;-49
2023/10/02 00:17:06;;;;;;;22.27;13.45;;;16.90;99.90;;;;;;6278550;22;20471;-48
2023/10/02 00:19:37;;;;;;;20.52;14.10;;;16.90;99.90;;;;;;6305433;22;20021;-47
2023/10/02 00:22:34;;;;;;;20.90;14.20;;;17.00;99.90;;;;;;6305527;22;20011;-46
2023/10/02 00:24:57;;;;;;;22.75;14.30;;;17.00;99.90;;;;;;6304808;22;20097;-50
2023/10/02 00:27:24;;;;;;;21.98;13.88;;;17.00;99.90;;;;;;6277714;22;20100;-48
2023/10/02 00:29:53;;;;;;;22.92;13.82;;;17.00;99.90;;;;;;6305543;22;20044;-46
2023/10/02 00:32:26;;;;;;;20.98;13.60;;;17.00;99.90;;;;;;6304958;22;20320;-48
2023/10/02 00:34:55;;;;;;;22.33;14.40;;;17.00;99.90;;;;;;6305225;22;20443;-49
2023/10/02 00:37:21;;;;;;;22.75;13.82;;;17.00;99.90;;;;;;6305121;22;20057;-45
2023/10/02 00:39:52;;;;;;;20.88;14.13;;;16.90;99.90;;;;;;6305217;22;20019;-46
2023/10/02 00:44:52;;;;;;;22.70;13.88;;;17.00;99.90;;;;;;6305871;22;20023;-49
2023/10/02 00:50:11;;;;;;;19.88;13.60;;;17.10;99.90;;;;;;6305620;22;20019;-48
2023/10/02 00:52:58;;;;;;;20.63;13.70;;;17.10;99.90;;;;;;6305041;22;20428;-46
2023/10/02 00:55:30;;;;;;;;;;;17.20;99.90;;;;;;6305953;22;20340;-49
2023/10/02 00:57:56;;;;;;;26.60;13.85;;;17.30;99.90;;;;;;6304340;22;19919;-46
2023/10/02 01:00:31;;;;;;;22.65;13.90;;;17.10;99.90;;;;;;6305468;22;20018;-48
2023/10/02 01:02:58;;;;;;;23.90;14.30;;;17.20;99.90;;;;;;6305101;22;20451;-47
2023/10/02 01:05:42;;;;;;;20.65;13.93;;;17.20;99.90;;;;;;6305465;22;20018;-47
2023/10/02 01:08:24;;;;;;;24.23;13.45;;;17.20;99.90;;;;;;6305429;22;20110;-47
2023/10/02 01:10:57;;;;;;;19.83;14.15;;;17.20;99.90;;;;;;6277364;22;20026;-48
2023/10/02 01:13:34;;;;;;;22.85;14.63;;;17.20;99.90;;;;;;6304765;22;20434;-48
2023/10/02 01:16:08;;;;;;;25.25;14.35;;;17.20;99.90;;;;;;6305147;22;20035;-49
2023/10/02 01:18:35;;;;;;;20.60;13.80;;;17.20;99.90;;;;;;6304594;22;20451;-46
2023/10/02 01:21:09;;;;;;;20.88;13.82;;;17.10;99.90;;;;;;6305292;22;20090;-47
2023/10/02 01:24:07;;;;;;;21.63;14.02;;;17.10;99.90;;;;;;6304821;22;20471;-46
2023/10/02 01:26:41;;;;;;;20.92;13.38;;;17.10;99.90;;;;;;6277706;22;20020;-47
2023/10/02 01:29:10;;;;;;;23.83;14.07;;;17.10;99.90;;;;;;6304589;22;20381;-46
2023/10/02 01:31:48;;;;;;;22.02;13.55;;;17.10;99.90;;;;;;6305243;22;20026;-46
2023/10/02 01:37:03;;;;;;;21.08;13.95;;;17.00;99.90;;;;;;6277429;22;20023;-47
2023/10/02 01:39:29;;;;;;;21.95;13.82;;;16.90;99.90;;;;;;6304962;22;20047;-46
2023/10/02 01:41:55;;;;;;;21.13;13.85;;;16.90;99.90;;;;;;6305003;22;20011;-46
2023/10/02 01:44:22;;;;;;;21.30;14.13;;;16.90;99.90;;;;;;6304899;22;20007;-47
2023/10/02 01:46:52;;;;;;;;;;;16.90;99.90;;;;;;6305004;22;20041;-46
2023/10/02 01:49:25;;;;;;;21.35;14.20;;;16.80;99.90;;;;;;6304608;22;19921;-47
2023/10/02 01:51:55;;;;;;;17.67;13.05;;;16.80;99.90;;;;;;6278626;22;20023;-46
2023/10/02 01:54:27;;;;;;;21.52;14.55;;;16.80;99.90;;;;;;6304583;22;20090;-49
2023/10/02 01:56:55;;;;;;;23.83;14.10;;;16.70;99.90;;;;;;6305352;22;20003;-48
2023/10/02 01:59:21;;;;;;;21.95;13.55;;;16.80;99.90;;;;;;6304151;22;20046;-47
2023/10/02 02:01:56;;;;;;;22.38;13.57;;;16.80;99.90;;;;;;6303869;22;20011;-46
2023/10/02 02:04:32;;;;;;;22.70;14.23;;;16.70;99.90;;;;;;6303215;22;20023;-47
2023/10/02 02:07:00;;;;;;;24.13;14.18;;;16.70;99.90;;;;;;6303863;22;20464;-48
2023/10/02 02:09:27;;;;;;;;;;;16.80;99.90;;;;;;6304363;22;20015;-49
2023/10/02 02:12:08;;;;;;;21.33;14.65;;;16.60;99.90;;;;;;6304671;22;20020;-48
2023/10/02 02:14:49;;;;;;;23.45;13.77;;;16.60;99.90;;;;;;6304481;22;20019;-46
2023/10/02 02:17:20;;;;;;;21.02;14.00;;;16.50;99.90;;;;;;6304731;22;20015;-48
2023/10/02 02:19:50;;;;;;;23.83;15.27;;;16.50;99.90;;;;;;6303406;22;20015;-48
2023/10/02 02:22:23;;;;;;;23.58;14.20;;;16.50;99.90;;;;;;6302132;22;20018;-47
2023/10/02 02:24:49;;;;;;;20.58;14.68;;;16.50;99.90;;;;;;6304017;22;20015;-48
2023/10/02 02:27:19;;;;;;;26.42;15.35;;;16.40;99.90;;;;;;6276496;22;20439;-46
2023/10/02 02:29:48;;;;;;;25.60;15.57;;;16.40;99.90;;;;;;6304449;22;20331;-47
2023/10/02 02:32:19;;;;;;;25.88;15.55;;;16.40;99.90;;;;;;6304468;22;20015;-46
2023/10/02 02:34:45;;;;;;;21.85;14.20;;;16.40;99.90;;;;;;6304360;22;20011;-48
2023/10/02 02:37:11;;;;;;;23.45;14.75;;;16.40;99.90;;;;;;6276941;22;20021;-47
2023/10/02 02:39:37;;;;;;;24.30;15.77;;;16.40;99.90;;;;;;6304870;22;20023;-48
2023/10/02 02:42:18;;;;;;;24.85;16.02;;;16.40;99.90;;;;;;6276310;22;20316;-47
2023/10/02 02:44:50;;;;;;;21.60;14.88;;;16.40;99.90;;;;;;6304485;22;20018;-47
2023/10/02 02:47:20;;;;;;;23.25;15.30;;;16.50;99.90;;;;;;6304016;22;20016;-48
2023/10/02 02:49:58;;;;;;;23.52;14.82;;;16.50;99.90;;;;;;6276392;22;20027;-46
2023/10/02 02:52:26;;;;;;;22.73;14.65;;;16.40;99.90;;;;;;6276503;22;20463;-46
2023/10/02 02:54:59;;;;;;;23.15;14.95;;;16.40;99.90;;;;;;6304321;22;20426;-47
2023/10/02 02:57:31;;;;;;;21.60;14.77;;;16.40;99.90;;;;;;6304413;22;20086;-49
2023/10/02 03:05:52;;;;;;;22.90;15.07;;;16.40;99.90;;;;;;6209031;23;20044;-48
2023/10/02 03:08:19;;;;;;;22.30;14.70;;;16.40;99.90;;;;;;6208975;23;20415;-48
2023/10/02 03:10:57;;;;;;;19.75;14.52;;;16.40;99.90;;;;;;6209766;23;20520;-47
2023/10/02 03:13:22;;;;;;;22.55;14.90;;;16.30;99.90;;;;;;6211257;23;20478;-46
2023/10/02 03:15:49;;;;;;;26.05;14.85;;;16.30;99.90;;;;;;6211217;23;20043;-46
2023/10/02 03:18:31;;;;;;;24.60;15.23;;;16.30;99.90;;;;;;6211317;23;20036;-47
2023/10/02 03:21:14;;;;;;;23.65;14.70;;;16.20;99.90;;;;;;6211752;23;20089;-49
2023/10/02 03:23:43;;;;;;;23.08;14.95;;;16.20;99.90;;;;;;6211261;23;20027;-49
2023/10/02 03:29:01;;;;;;;23.65;15.15;;;16.10;99.90;;;;;;6211301;23;20052;-48
2023/10/02 03:31:51;;;;;;;23.52;14.55;;;16.10;99.90;;;;;;6211310;23;20423;-45
2023/10/02 03:34:32;;;;;;;23.88;14.77;;;16.10;99.90;;;;;;6274323;22;20048;-48
2023/10/02 03:42:25;;;;;;;25.65;15.13;;;16.00;99.90;;;;;;6306368;22;20020;-46
2023/10/02 03:44:56;;;;;;;24.42;15.00;;;16.00;99.90;;;;;;6277902;22;20019;-47
2023/10/02 03:47:23;;;;;;;25.65;15.30;;;15.90;99.90;;;;;;6305769;22;20011;-49
2023/10/02 03:49:50;;;;;;;22.48;15.10;;;15.90;99.90;;;;;;6277554;22;20102;-46
2023/10/02 03:52:19;;;;;;;;;;;15.90;99.90;;;;;;6306535;22;20389;-47
2023/10/02 03:54:45;;;;;;;22.63;15.13;;;15.90;99.90;;;;;;6306284;22;19918;-47
2023/10/02 04:00:00;;;;;;;26.40;15.35;;;15.90;99.90;;;;;;6305396;22;20455;-47
2023/10/02 04:02:30;;;;;;;25.38;15.15;;;15.80;99.90;;;;;;6278014;22;20095;-49
2023/10/02 04:04:56;;;;;;;25.58;14.65;;;15.80;99.90;;;;;;6305776;22;20015;-46
2023/10/02 04:07:24;;;;;;;24.30;15.10;;;15.70;99.90;;;;;;6305907;22;20026;-47
2023/10/02 04:09:51;;;;;;;25.70;15.43;;;15.70;99.90;;;;;;6278286;22;20019;-47
2023/10/02 04:12:22;;;;;;;25.23;15.35;;;15.70;99.90;;;;;;6305537;22;20447;-46
2023/10/02 04:14:48;;;;;;;24.67;14.70;;;15.70;99.90;;;;;;6305337;22;20019;-46
2023/10/02 04:17:20;;;;;;;24.20;15.05;;;15.70;99.90;;;;;;6278287;22;20068;-45
2023/10/02 04:19:51;;;;;;;26.50;15.10;;;15.70;99.90;;;;;;6305781;22;20019;-46
2023/10/02 04:22:25;;;;;;;25.08;16.08;;;15.70;99.90;;;;;;6305290;22;20106;-46
2023/10/02 04:25:03;;;;;;;24.88;16.02;;;15.70;99.90;;;;;;6305569;22;20019;-47
2023/10/02 04:32:48;;;;;;;24.25;15.88;;;15.70;99.90;;;;;;6304575;22;20019;-46
2023/10/02 04:37:59;;;;;;;26.35;15.52;;;15.60;99.90;;;;;;6303986;22;20023;-47
2023/10/02 04:40:44;;;;;;;23.23;15.82;;;15.60;99.90;;;;;;6301947;22;20018;-47
2023/10/02 04:43:19;;;;;;;26.65;15.82;;;15.60;99.90;;;;;;6303046;22;20011;-46
2023/10/02 04:45:52;;;;;;;25.13;16.10;;;15.70;99.90;;;;;;6276691;22;20019;-46
2023/10/02 04:48:25;;;;;;;26.85;15.40;;;15.70;99.90;;;;;;6304230;22;20015;-47
2023/10/02 04:50:53;;;;;;;25.48;15.50;;;15.70;99.90;;;;;;6273759;22;20316;-47
2023/10/02 04:53:22;;;;;;;27.13;15.40;;;15.70;99.90;;;;;;6302632;22;20018;-46
2023/10/02 04:56:06;;;;;;;26.92;16.65;;;15.60;99.90;;;;;;6305144;22;20026;-46
2023/10/02 04:58:39;;;;;;;27.67;16.15;;;15.60;99.90;;;;;;6306617;22;20078;-45
2023/10/02 05:03:34;;;;;;;24.73;15.55;;;15.60;99.90;;;;;;6304942;22;20119;-47
2023/10/02 05:06:03;;;;;;;26.77;16.50;;;15.50;99.90;;;;;;6277808;22;20050;-47
2023/10/02 05:08:35;;;;;;;29.25;17.30;;;15.70;99.90;;;;;;6305319;22;20068;-47
2023/10/02 05:11:06;;;;;;;26.35;15.20;;;15.50;99.90;;;;;;6251424;22;20015;-48
2023/10/02 05:16:26;;;;;;;23.88;15.90;;;;;;;;;;6305069;22;20023;-49
2023/10/02 05:18:53;;;;;;;25.88;15.93;;;15.40;99.90;;;;;;6304890;22;20068;-50
2023/10/02 05:21:19;;;;;;;25.48;15.32;;;15.40;99.90;;;;;;6304521;22;20360;-48
2023/10/02 05:24:00;;;;;;;25.65;15.73;;;15.40;99.90;;;;;;6304024;22;20108;-50
2023/10/02 05:26:36;;;;;;;27.02;17.10;;;15.30;99.90;;;;;;6304497;22;20043;-47
2023/10/02 05:29:06;;;;;;;23.92;15.50;;;15.40;99.90;;;;;;6304496;22;20026;-47
2023/10/02 05:31:35;;;;;;;25.27;15.82;;;15.40;99.90;;;;;;6304375;22;20015;-46
2023/10/02 05:34:24;;;;;;;25.20;15.77;;;15.40;99.90;;;;;;6303351;22;20015;-49
2023/10/02 05:39:34;;;;;;;25.45;15.48;;;15.40;99.90;;;;;;6304708;22;20068;-47
2023/10/02 05:42:06;;;;;;;;;;;15.40;99.90;;;;;;6305202;22;20054;-46
2023/10/02 05:44:36;;;;;;;26.05;15.63;;;15.40;99.90;;;;;;6305151;22;19921;-46
2023/10/02 05:47:05;;;;;;;24.98;15.13;;;15.50;99.90;;;;;;6305352;22;20007;-49
2023/10/02 05:49:47;;;;;;;22.60;15.25;;;15.50;99.90;;;;;;6277097;22;20019;-45
2023/10/02 05:52:18;;;;;;;29.08;15.60;;;15.60;99.90;;;;;;6304635;22;20049;-47
2023/10/02 05:54:49;;;;;;;23.75;15.32;;;15.60;99.90;;;;;;6304841;22;20472;-45
2023/10/02 05:57:16;;;;;;;23.13;14.15;;;15.60;99.90;;;;;;6303751;22;20388;-46
2023/10/02 05:59:54;;;;;;;26.05;15.98;;;15.60;99.90;;;;;;6305148;22;20047;-46
2023/10/02 06:02:23;;;;;;;21.55;14.25;;;15.70;99.90;;;;;;6275111;22;20015;-46
2023/10/02 06:04:53;;;;;;;27.55;15.00;;;15.70;99.90;;;;;;6302973;22;20011;-45
2023/10/02 06:10:24;;;;;;;24.38;14.32;;;15.80;99.90;;;;;;6305691;22;20023;-45
2023/10/02 06:13:03;;;;;;;23.92;15.07;;;15.80;99.90;;;;;;6277180;22;20016;-46
2023/10/02 06:16:07;;;;;;;21.42;14.02;;;15.90;99.90;;;;;;6304813;22;20133;-45
2023/10/02 06:18:29;;;;;;;26.20;15.05;;;15.90;99.90;;;;;;6299529;22;20019;-46
2023/10/02 06:21:00;;;;;;;23.50;14.95;;;16.00;99.90;;;;;;6304203;22;20015;-45
2023/10/02 06:23:29;;;;;;;23.65;15.10;;;16.00;99.90;;;;;;6304648;22;20026;-46
2023/10/02 06:25:59;;;;;;;25.15;13.73;;;16.10;99.90;;;;;;6304495;22;20018;-46
2023/10/02 06:28:28;;;;;;;21.88;14.18;;;16.10;99.90;;;;;;6277118;22;20011;-46
2023/10/02 06:30:54;;;;;;;25.85;14.45;;;16.20;99.90;;;;;;6303844;22;20023;-45
2023/10/02 06:33:24;;;;;;;25.55;15.13;;;16.30;99.90;;;;;;6304390;22;20015;-49
2023/10/02 06:35:57;;;;;;;22.58;14.80;;;16.40;99.90;;;;;;6303813;22;20019;-45
2023/10/02 06:38:29;;;;;;;28.10;15.55;;;16.60;99.90;;;;;;6305023;22;20022;-47
2023/10/02 06:40:56;;;;;;;22.65;14.60;;;16.70;99.90;;;;;;6303924;22;20019;-49
2023/10/02 06:43:28;;;;;;;24.63;14.63;;;16.70;99.90;;;;;;6304482;22;20087;-46
2023/10/02 06:46:06;;;;;;;22.40;14.43;;;16.80;99.90;;;;;;6306886;22;20023;-46
2023/10/02 06:48:35;;;;;;;;;;;16.90;99.90;;;;;;6306815;22;20024;-46
2023/10/02 06:51:04;;;;;;;22.52;13.80;;;16.90;99.90;;;;;;6306044;22;20023;-46
2023/10/02 06:53:30;;;;;;;28.13;15.38;;;17.00;99.90;;;;;;6279325;22;20014;-47
2023/10/02 06:55:59;;;;;;;19.77;13.63;;;17.10;99.90;;;;;;6306003;22;20011;-46
2023/10/02 06:58:26;;;;;;;24.23;14.32;;;17.20;99.90;;;;;;6278166;22;20007;-46
2023/10/02 07:01:02;;;;;;;21.73;14.52;;;17.20;99.90;;;;;;6306067;22;20078;-48
2023/10/02 07:03:28;;;;;;;22.17;14.43;;;17.10;99.90;;;;;;6306869;22;20075;-45
2023/10/02 07:05:53;;;;;;;23.45;14.55;;;17.20;99.90;;;;;;6307152;22;20383;-48
2023/10/02 07:08:22;;;;;;;28.58;15.07;;;17.10;99.90;;;;;;6279588;22;20090;-46
2023/10/02 07:10:48;;;;;;;23.80;14.93;;;17.20;99.90;;;;;;6307241;22;20034;-47
2023/10/02 07:13:20;;;;;;;23.38;14.75;;;17.30;99.90;;;;;;6307723;22;20068;-47
2023/10/02 07:15:59;;;;;;;23.30;15.13;;;17.40;99.90;;;;;;6306872;22;20439;-46
2023/10/02 07:18:45;;;;;;;22.70;14.43;;;17.40;99.90;;;;;;6307299;22;20023;-45
2023/10/02 07:21:11;;;;;;;23.95;14.23;;;17.50;99.90;;;;;;6307522;22;20065;-46
2023/10/02 07:23:40;;;;;;;25.65;15.05;;;17.70;99.90;;;;;;6307230;22;20015;-48
2023/10/02 07:26:12;;;;;;;25.42;15.30;;;17.80;99.90;;;;;;6306974;22;20098;-47
2023/10/02 07:28:50;;;;;;;23.83;14.55;;;17.80;99.90;;;;;;6307804;22;20015;-47
2023/10/02 07:31:19;;;;;;;24.98;15.02;;;17.80;99.90;;;;;;6279686;22;20042;-50
2023/10/02 07:33:45;;;;;;;24.65;15.05;;;17.80;99.90;;;;;;6306033;22;20038;-46
2023/10/02 07:36:14;;;;;;;22.10;13.35;;;17.90;99.90;;;;;;6306238;22;20446;-48
2023/10/02 07:38:42;;;;;;;23.65;14.63;;;18.00;99.90;;;;;;6305661;22;20015;-48
2023/10/02 07:41:17;;;;;;;;;;;18.00;99.90;;;;;;6306993;22;20094;-50
2023/10/02 07:43:43;;;;;;;24.60;15.68;;;18.10;99.90;;;;;;6253252;22;19915;-48
2023/10/02 07:46:14;;;;;;;26.20;15.45;;;18.30;99.90;;;;;;6306426;22;20161;-47
2023/10/02 07:48:55;;;;;;;25.55;15.63;;;18.30;99.90;;;;;;6305987;22;20019;-45
2023/10/02 07:51:30;;;;;;;24.15;15.35;;;18.40;99.90;;;;;;6305430;22;20019;-47
2023/10/02 07:53:58;;;;;;;25.23;14.75;;;18.40;99.90;;;;;;6305435;22;20019;-45
2023/10/02 07:56:24;;;;;;;25.63;15.70;;;18.30;99.90;;;;;;6305347;22;20033;-48
2023/10/02 07:58:55;;;;;;;23.33;14.38;;;18.30;99.90;;;;;;6305631;22;20058;-45
2023/10/02 08:01:27;;;;;;;22.60;15.23;;;18.30;99.90;;;;;;6306077;22;20011;-46
2023/10/02 08:03:52;;;;;;;26.20;15.20;;;18.20;99.90;;;;;;6306647;22;20046;-45
2023/10/02 08:06:33;;;;;;;25.90;15.93;;;18.40;99.90;;;;;;6307323;22;20023;-44
2023/10/02 08:11:52;;;;;;;26.60;16.10;;;18.50;99.90;;;;;;6309734;22;20019;-45
2023/10/02 08:14:35;;;;;;;24.75;15.38;;;18.50;99.90;;;;;;6307790;22;20339;-47
2023/10/02 08:17:21;;;;;;;23.83;15.40;;;18.60;99.90;;;;;;6307220;22;20026;-44
2023/10/02 08:19:56;;;;;;;23.65;15.63;;;18.70;99.90;;;;;;6307709;22;20015;-47
2023/10/02 08:22:35;;;;;;;23.80;16.10;;;18.80;99.90;;;;;;6279085;22;20021;-45
2023/10/02 08:25:02;;;;;;;26.13;14.88;;;18.90;99.90;;;;;;6307966;22;20054;-47
2023/10/02 08:27:28;;;;;;;24.50;15.70;;;19.10;99.90;;;;;;6280473;22;20346;-46
2023/10/02 08:29:56;;;;;;;24.08;15.93;;;19.10;99.90;;;;;;6306725;22;20026;-45
2023/10/02 08:32:28;;;;;;;24.35;16.13;;;19.30;99.90;;;;;;6306888;22;20012;-45
2023/10/02 08:34:55;;;;;;;24.08;16.27;;;19.30;99.90;;;;;;6306298;22;20012;-46
2023/10/02 08:37:21;;;;;;;20.87;13.50;;;;;;;;;;6275899;22;20012;-45
2023/10/02 08:39:47;;;;;;;24.92;15.55;;;19.60;99.90;;;;;;6306079;22;20533;-45
2023/10/02 08:42:14;;;;;;;24.92;15.20;;;19.80;99.90;;;;;;6305742;22;20050;-48
2023/10/02 08:44:41;;;;;;;24.13;16.48;;;19.80;99.90;;;;;;6278790;22;20028;-47
2023/10/02 08:47:09;;;;;;;;;;;19.90;99.90;;;;;;6306400;22;20044;-47
2023/10/02 08:49:36;;;;;;;24.65;15.95;;;20.00;99.90;;;;;;6303495;22;19915;-46
2023/10/02 08:52:06;;;;;;;26.55;16.60;;;20.10;99.90;;;;;;6305094;22;20491;-47
2023/10/02 08:54:32;;;;;;;24.77;15.57;;;20.30;99.90;;;;;;6304699;22;20015;-48
2023/10/02 08:57:06;;;;;;;25.25;15.73;;;20.30;99.90;;;;;;6278235;22;20023;-44
2023/10/02 08:59:38;;;;;;;24.50;16.13;;;20.30;99.90;;;;;;6303124;22;20442;-47
2023/10/02 09:02:15;;;;;;;24.52;16.13;;;20.40;99.90;;;;;;6305758;22;20019;-46
2023/10/02 09:04:53;;;;;;;27.45;16.23;;;20.50;99.90;;;;;;6305942;22;20016;-46
2023/10/02 09:10:41;;;;;;;27.10;15.40;;;20.50;99.90;;;;;;6304238;22;20023;-47
2023/10/02 09:13:16;;;;;;;25.60;16.40;;;20.60;99.90;;;;;;6278520;22;20390;-46
2023/10/02 09:15:44;;;;;;;;;;;20.80;99.90;;;;;;6305510;22;20386;-45
2023/10/02 09:18:22;;;;;;;23.08;15.52;;;20.90;99.90;;;;;;6305626;22;20235;-45
2023/10/02 09:20:53;;;;;;;25.55;15.70;;;20.90;99.90;;;;;;6306102;22;20060;-46
2023/10/02 09:23:27;;;;;;;23.52;15.55;;;21.00;99.90;;;;;;6305799;22;20011;-45
2023/10/02 09:26:17;;;;;;;24.63;15.48;;;21.00;99.90;;;;;;6305649;22;20454;-44
2023/10/02 09:28:58;;;;;;;24.00;15.52;;;21.10;99.90;;;;;;6304980;22;20026;-46
2023/10/02 09:31:34;;;;;;;24.67;16.02;;;21.20;99.90;;;;;;6280731;22;20037;-44
2023/10/02 09:34:16;;;;;;;22.70;14.90;;;21.00;99.90;;;;;;6305523;22;20072;-46
2023/10/02 09:36:52;;;;;;;24.58;16.25;;;21.00;99.90;;;;;;6306577;22;20011;-45
2023/10/02 09:39:36;;;;;;;24.17;15.88;;;20.90;99.90;;;;;;6253080;22;20026;-46
2023/10/02 09:42:09;;;;;;;24.70;15.60;;;20.90;99.90;;;;;;6277213;22;20060;-48
2023/10/02 09:44:47;;;;;;;26.20;16.50;;;21.10;99.90;;;;;;6277347;22;20080;-46
2023/10/02 09:47:20;;;;;;;28.35;17.58;;;21.50;99.90;;;;;;6305296;22;20350;-48
2023/10/02 09:50:10;;;;;;;27.38;16.73;;;;;;;;;;6304381;22;20015;-44
2023/10/02 09:52:47;;;;;;;35.28;17.90;;;21.70;99.90;;;;;;6305585;22;20015;-47
2023/10/02 09:55:42;;;;;;;25.27;16.95;;;21.90;99.90;;;;;;6304942;22;20007;-49
2023/10/02 09:58:26;;;;;;;27.17;16.63;;;22.30;99.90;;;;;;6303825;22;20587;-45
2023/10/02 10:03:55;;;;;;;27.73;16.70;;;22.50;99.90;;;;;;6304942;22;20041;-45
2023/10/02 10:06:28;;;;;;;27.65;17.27;;;22.60;99.90;;;;;;6305456;22;20015;-46
2023/10/02 10:11:43;;;;;;;26.70;16.70;;;22.70;99.90;;;;;;6278794;22;20325;-44
2023/10/02 10:14:45;;;;;;;27.35;17.00;;;22.60;99.90;;;;;;6306144;22;20019;-46
2023/10/02 10:17:16;;;;;;;24.38;16.50;;;22.70;99.90;;;;;;6295887;22;20336;-44
2023/10/02 10:19:53;;;;;;;28.38;15.77;;;22.60;99.90;;;;;;6305223;22;20019;-47
2023/10/02 10:22:39;;;;;;;28.98;17.25;;;22.50;99.90;;;;;;6306526;22;20051;-45
2023/10/02 10:25:32;;;;;;;31.00;18.15;;;22.40;99.90;;;;;;6306275;22;20609;-42
2023/10/02 10:27:59;;;;;;;29.17;17.75;;;22.30;99.90;;;;;;6287847;22;20478;-44
2023/10/02 10:30:25;;;;;;;27.98;17.65;;;22.40;99.90;;;;;;6278284;22;20046;-44
2023/10/02 10:33:15;;;;;;;26.52;18.08;;;22.60;99.90;;;;;;6305922;22;20015;-45
2023/10/02 10:36:09;;;;;;;27.40;17.52;;;22.50;99.90;;;;;;6304281;22;20023;-44
2023/10/02 10:38:41;;;;;;;23.83;15.80;;;22.60;99.90;;;;;;6305316;22;20015;-44
2023/10/02 10:41:09;;;;;;;24.48;16.17;;;22.70;99.90;;;;;;6305834;22;20320;-45
2023/10/02 10:43:44;;;;;;;26.05;16.83;;;22.70;99.90;;;;;;6306204;22;20016;-44
2023/10/02 10:46:24;;;;;;;24.05;15.30;;;22.90;99.90;;;;;;6306447;22;20091;-46
2023/10/02 10:49:10;;;;;;;24.10;15.48;;;22.90;99.90;;;;;;6305932;22;20012;-45
2023/10/02 10:51:39;;;;;;;23.38;15.07;;;22.90;99.90;;;;;;6306669;22;20018;-44
2023/10/02 10:54:30;;;;;;;25.20;14.98;;;22.80;99.90;;;;;;6306536;22;20095;-44
2023/10/02 10:57:19;;;;;;;24.58;15.35;;;22.80;99.90;;;;;;6305942;22;20467;-45
2023/10/02 10:59:45;;;;;;;23.40;14.65;;;23.00;99.90;;;;;;6278244;22;20086;-46
2023/10/02 11:02:16;;;;;;;23.77;14.90;;;23.20;99.90;;;;;;6306102;22;20064;-44
2023/10/02 11:04:49;;;;;;;23.15;14.55;;;23.20;99.90;;;;;;6306201;22;20019;-45
2023/10/02 11:07:19;;;;;;;20.85;14.27;;;23.30;99.90;;;;;;6306437;22;20053;-45
2023/10/02 11:10:15;;;;;;;24.70;14.18;;;23.30;99.90;;;;;;6306574;22;20016;-48
2023/10/02 11:12:54;;;;;;;23.38;14.70;;;23.20;99.90;;;;;;6307748;22;20034;-45
2023/10/02 11:18:18;;;;;;;19.17;13.38;;;23.40;99.90;;;;;;6306190;22;20027;-48
2023/10/02 11:20:49;;;;;;;24.05;14.75;;;23.40;99.90;;;;;;6305781;22;20470;-46
2023/10/02 11:23:30;;;;;;;22.95;14.32;;;23.50;99.90;;;;;;6278054;22;20019;-47
2023/10/02 11:25:58;;;;;;;22.88;15.18;;;23.70;99.90;;;;;;6306608;22;20023;-45
2023/10/02 11:28:32;;;;;;;23.20;14.85;;;23.80;99.90;;;;;;6305912;22;20470;-44
2023/10/02 11:34:04;;;;;;;22.17;14.88;;;23.80;99.90;;;;;;6307522;22;20027;-45
2023/10/02 11:36:36;;;;;;;25.95;16.00;;;23.50;99.90;;;;;;6306443;22;20027;-46
2023/10/02 11:39:09;;;;;;;25.08;15.60;;;23.50;99.90;;;;;;6307056;22;20011;-46
2023/10/02 11:41:38;;;;;;;22.80;15.00;;;23.40;99.90;;;;;;6307686;22;20494;-47
2023/10/02 11:44:05;;;;;;;25.45;15.63;;;23.50;99.90;;;;;;6308247;22;20399;-44
2023/10/02 11:46:31;;;;;;;22.95;14.93;;;23.60;99.90;;;;;;6308753;22;20020;-44
2023/10/02 11:48:57;;;;;;;23.00;15.57;;;23.60;99.90;;;;;;6307814;22;20079;-45
2023/10/02 11:51:28;;;;;;;25.52;15.20;;;23.60;99.90;;;;;;6306746;22;20075;-46
2023/10/02 11:53:57;;;;;;;26.40;15.50;;;23.60;99.90;;;;;;6307549;22;20047;-45
2023/10/02 11:56:24;;;;;;;22.70;14.40;;;23.60;99.90;;;;;;6279568;22;20069;-47
2023/10/02 11:58:52;;;;;;;22.80;14.20;;;23.70;99.90;;;;;;6307557;22;20022;-45
2023/10/02 12:01:22;;;;;;;23.58;15.30;;;23.60;99.90;;;;;;6307279;22;20057;-44
2023/10/02 12:03:49;;;;;;;21.73;15.38;;;23.60;99.90;;;;;;6305505;22;20474;-46
2023/10/02 12:06:16;;;;;;;21.00;13.77;;;23.50;99.90;;;;;;6306813;22;20018;-46
2023/10/02 12:08:46;;;;;;;22.88;15.30;;;23.50;99.90;;;;;;6278168;22;20015;-47
2023/10/02 12:11:13;;;;;;;22.20;15.88;;;23.40;99.90;;;;;;6279542;22;20074;-46
2023/10/02 12:13:40;;;;;;;23.65;13.95;;;23.40;99.90;;;;;;6307124;22;20007;-45
2023/10/02 12:16:10;;;;;;;23.05;14.45;;;23.40;99.90;;;;;;6306285;22;20542;-48
2023/10/02 12:18:42;;;;;;;22.52;15.00;;;23.40;99.90;;;;;;6306909;22;20015;-46
2023/10/02 12:21:10;;;;;;;20.20;14.02;;;23.30;99.90;;;;;;6306750;22;20025;-49
2023/10/02 12:23:39;;;;;;;19.63;13.65;;;23.50;99.90;;;;;;6306775;22;20007;-48
2023/10/02 12:26:11;;;;;;;18.63;12.98;;;23.60;99.90;;;;;;6306744;22;20011;-49
2023/10/02 12:28:37;;;;;;;21.00;13.35;;;23.70;99.90;;;;;;6307724;22;20026;-46
2023/10/02 12:31:13;;;;;;;19.38;12.50;;;23.80;99.90;;;;;;6306530;22;20052;-47
2023/10/02 12:33:44;;;;;;;21.52;13.40;;;23.90;99.90;;;;;;6279319;22;20022;-45
2023/10/02 12:36:17;;;;;;;16.30;11.85;;;24.00;99.90;;;;;;6306855;22;20120;-46
2023/10/02 12:38:44;;;;;;;18.50;12.57;;;24.10;99.90;;;;;;6306380;22;20120;-46
2023/10/02 12:41:14;;;;;;;19.02;12.50;;;24.20;99.90;;;;;;6307077;22;20026;-44
2023/10/02 12:43:42;;;;;;;21.20;12.95;;;24.10;99.90;;;;;;6306697;22;20451;-49
2023/10/02 12:46:09;;;;;;;17.25;12.23;;;24.10;99.90;;;;;;6279122;22;20072;-46
2023/10/02 12:48:35;;;;;;;22.20;13.60;;;24.10;99.90;;;;;;6253494;22;20026;-44
2023/10/02 12:51:07;;;;;;;20.33;12.50;;;24.10;99.90;;;;;;6306105;22;20007;-48
2023/10/02 12:53:37;;;;;;;24.35;12.93;;;24.10;99.90;;;;;;6306223;22;20952;-46
2023/10/02 12:56:05;;;;;;;18.48;12.48;;;24.10;99.90;;;;;;6306434;22;20072;-48
2023/10/02 12:58:32;;;;;;;19.83;11.95;;;24.00;99.90;;;;;;6306309;22;20385;-45
2023/10/02 13:00:58;;;;;;;17.38;12.32;;;23.80;99.90;;;;;;6306207;22;20329;-46
2023/10/02 13:03:24;;;;;;;18.17;12.45;;;23.80;99.90;;;;;;6306334;22;20008;-45
2023/10/02 13:05:50;;;;;;;19.02;14.70;;;23.70;99.90;;;;;;6278086;22;20015;-47
2023/10/02 13:08:15;;;;;;;20.92;12.48;;;23.60;99.90;;;;;;6305962;22;20346;-45
2023/10/02 13:10:42;;;;;;;21.05;13.57;;;23.60;99.90;;;;;;6278679;22;20468;-44
2023/10/02 13:13:08;;;;;;;18.77;12.57;;;23.70;99.90;;;;;;6304440;22;20159;-45
2023/10/02 13:15:34;;;;;;;18.17;11.55;;;23.70;99.90;;;;;;6306434;22;20030;-45
2023/10/02 13:18:00;;;;;;;17.27;11.93;;;23.80;99.90;;;;;;6306610;22;20015;-48
2023/10/02 13:20:26;;;;;;;21.50;12.82;;;23.90;99.90;;;;;;6306454;22;20011;-45
2023/10/02 13:22:54;;;;;;;18.30;11.60;;;23.90;99.90;;;;;;6304438;22;20793;-48
2023/10/02 13:25:21;;;;;;;;;;;24.10;99.90;;;;;;6279385;22;20019;-49
2023/10/02 13:27:47;;;;;;;18.23;12.35;;;24.30;99.90;;;;;;6306289;22;19921;-45
2023/10/02 13:30:14;;;;;;;17.67;11.95;;;24.40;99.90;;;;;;6305641;22;20011;-48
2023/10/02 13:32:40;;;;;;;19.27;13.23;;;24.50;99.90;;;;;;6278908;22;20082;-45
2023/10/02 13:35:06;;;;;;;21.98;12.77;;;24.60;99.90;;;;;;6306155;22;20397;-48
2023/10/02 13:37:34;;;;;;;18.60;12.88;;;24.50;99.90;;;;;;6306185;22;20085;-48
2023/10/02 13:40:00;;;;;;;17.83;12.30;;;24.40;99.90;;;;;;6305495;22;20337;-48
2023/10/02 13:42:26;;;;;;;19.63;12.95;;;24.30;99.90;;;;;;6305524;22;20091;-46
2023/10/02 13:44:52;;;;;;;19.00;12.52;;;24.20;99.90;;;;;;6306158;22;20384;-48
2023/10/02 13:47:17;;;;;;;21.73;13.63;;;24.10;99.90;;;;;;6305578;22;20343;-45
2023/10/02 13:49:43;;;;;;;22.00;13.30;;;24.10;99.90;;;;;;6305545;22;20018;-45
2023/10/02 13:52:09;;;;;;;21.42;12.93;;;24.10;99.90;;;;;;6306059;22;20019;-48
2023/10/02 13:54:37;;;;;;;19.75;13.05;;;24.00;99.90;;;;;;6304961;22;20105;-46
2023/10/02 13:57:04;;;;;;;19.58;13.55;;;24.10;99.90;;;;;;6305561;22;20022;-46
2023/10/02 13:59:32;;;;;;;20.55;13.38;;;24.00;99.90;;;;;;6278567;22;20069;-47
2023/10/02 14:01:59;;;;;;;19.73;13.23;;;24.10;99.90;;;;;;6306494;22;20072;-45